Time;durP1;ratioP1;P1;durP2;ratioP2;P2;SDS_P1;SDS_P2;PMS_P1;PMS_P2;Temp;Humidity;BMP_temperature;BMP_pressure;BME280_temperature;BME280_humidity;BME280_pressure;Samples;Min_cycle;Max_cycle;Signal;HPM_P1;HPM_P2
2021/05/03 00:00:27;;;;;;;4.57;0.85;;;;;;;18.39;33.41;101997.63;4192890;28;20032;-46
2021/05/03 00:02:27;;;;;;;2.17;1.13;;;;;;;18.21;33.48;101970.06;4189820;28;20234;-47
2021/05/03 00:04:27;;;;;;;2.88;0.88;;;;;;;18.37;33.44;101996.19;4192950;28;20044;-47
2021/05/03 00:06:28;;;;;;;1.05;0.80;;;;;;;18.38;33.53;101990.38;4194154;28;20048;-47
2021/05/03 00:08:28;;;;;;;3.03;1.30;;;;;;;18.39;33.24;102002.34;4190471;28;20032;-50
2021/05/03 00:10:29;;;;;;;2.03;1.00;;;;;;;18.34;33.13;101986.44;4195530;28;20036;-49
2021/05/03 00:12:30;;;;;;;2.10;1.00;;;;;;;18.30;33.40;101988.00;4193169;28;20079;-48
2021/05/03 00:14:30;;;;;;;1.52;0.73;;;;;;;18.27;33.25;101989.31;4191188;28;20033;-45
2021/05/03 00:16:31;;;;;;;1.83;0.73;;;;;;;18.28;33.32;101985.47;4193119;28;20032;-45
2021/05/03 00:18:31;;;;;;;1.25;1.00;;;;;;;18.29;33.26;101980.75;4192836;28;20029;-46
2021/05/03 00:20:32;;;;;;;1.85;0.60;;;;;;;18.17;33.18;101959.47;4192736;28;20040;-46
2021/05/03 00:22:33;;;;;;;3.42;1.15;;;;;;;18.29;33.14;101975.22;4193642;28;20043;-46
2021/05/03 00:24:33;;;;;;;2.17;0.80;;;;;;;18.29;33.31;101976.06;4191239;28;20130;-49
2021/05/03 00:26:34;;;;;;;1.70;1.02;;;;;;;18.29;33.20;101972.44;4192797;28;20393;-45
2021/05/03 00:28:34;;;;;;;2.72;1.20;;;;;;;18.26;33.01;101976.56;4188976;28;20073;-47
2021/05/03 00:30:34;;;;;;;2.92;0.90;;;;;;;18.27;32.90;101980.16;4192469;28;20040;-44
2021/05/03 00:32:35;;;;;;;1.88;1.10;;;;;;;18.22;33.09;101966.22;4193041;28;20127;-46
2021/05/03 00:34:35;;;;;;;1.65;1.05;;;;;;;18.22;33.03;101971.75;4192965;28;20036;-47
2021/05/03 00:36:36;;;;;;;1.95;1.02;;;;;;;18.22;32.94;101975.38;4192893;28;20519;-48
2021/05/03 00:38:37;;;;;;;1.23;0.88;;;;;;;18.21;32.99;101961.75;4193185;28;20033;-45
2021/05/03 00:40:37;;;;;;;3.10;1.02;;;;;;;18.06;33.07;101945.66;4191449;28;20134;-45
2021/05/03 00:42:38;;;;;;;1.75;0.90;;;;;;;18.04;32.92;101940.38;4192503;28;20024;-44
2021/05/03 00:44:38;;;;;;;1.73;0.70;;;;;;;18.17;32.93;101962.25;4192280;28;20052;-47
2021/05/03 00:46:40;;;;;;;2.35;1.23;;;;;;;18.20;33.12;101965.59;4190947;28;20051;-44
2021/05/03 00:48:40;;;;;;;1.85;0.90;;;;;;;18.15;32.81;101958.91;4190257;28;20028;-46
2021/05/03 00:50:42;;;;;;;3.03;1.35;;;;;;;18.15;32.87;101969.97;4192504;28;20100;-46
2021/05/03 00:52:43;;;;;;;3.20;1.27;;;;;;;18.17;32.86;101970.56;4192602;28;20029;-44
2021/05/03 00:54:44;;;;;;;1.05;0.88;;;;;;;18.15;32.79;101964.44;4193322;28;20040;-45
2021/05/03 00:56:44;;;;;;;4.47;0.90;;;;;;;18.16;32.93;101962.50;4191542;28;20027;-44
2021/05/03 00:58:45;;;;;;;1.73;0.73;;;;;;;18.09;32.67;101959.00;4191464;28;20040;-48
2021/05/03 01:03:43;;;;;;;0.50;0.50;;;;;;;18.02;32.85;101964.72;4186197;28;20456;-44
2021/05/03 01:05:43;;;;;;;1.42;0.73;;;;;;;18.05;32.93;101969.75;4191185;28;20028;-46
2021/05/03 01:07:43;;;;;;;2.10;0.80;;;;;;;18.05;32.78;101960.63;4191514;28;20036;-49
2021/05/03 01:09:44;;;;;;;1.90;1.08;;;;;;;17.97;32.79;101959.91;4193262;28;20036;-46
2021/05/03 01:11:44;;;;;;;1.85;0.68;;;;;;;18.04;32.88;101957.00;4189850;28;20044;-49
2021/05/03 01:13:45;;;;;;;1.15;0.68;;;;;;;18.03;32.83;101962.78;4193133;28;20040;-45
2021/05/03 01:15:45;;;;;;;1.25;0.70;;;;;;;17.95;32.87;101959.31;4192685;28;20040;-50
2021/05/03 01:17:56;;;;;;;2.30;0.80;;;;;;;17.94;33.00;101951.25;4192806;28;20029;-47
2021/05/03 01:19:56;;;;;;;;;;;;;;;17.91;32.95;101951.75;4193532;28;20073;-45
2021/05/03 01:21:56;;;;;;;;;;;;;;;18.01;32.73;101951.94;4193243;28;19967;-49
2021/05/03 01:23:57;;;;;;;1.60;0.70;;;;;;;18.03;32.78;101954.47;4192909;28;19970;-46
2021/05/03 01:25:57;;;;;;;1.25;0.60;;;;;;;17.85;32.65;101927.81;4192486;28;20090;-47
2021/05/03 01:27:59;;;;;;;2.33;0.85;;;;;;;17.99;32.67;101948.59;4192846;28;20032;-48
2021/05/03 01:29:59;;;;;;;2.05;0.80;;;;;;;17.97;32.75;101934.97;4192376;28;20156;-47
2021/05/03 01:34:10;;;;;;;1.00;0.70;;;;;;;17.97;32.71;101953.53;4253953;22;20135;-47
2021/05/03 01:36:10;;;;;;;2.58;1.35;;;;;;;17.92;32.72;101926.56;4138565;28;20034;-46
2021/05/03 01:38:11;;;;;;;0.80;0.80;;;;;;;17.93;32.76;101935.72;4156910;28;20044;-46
2021/05/03 01:40:12;;;;;;;1.23;0.90;;;;;;;17.91;32.92;101935.13;4149523;28;20043;-46
2021/05/03 01:42:12;;;;;;;0.75;0.70;;;;;;;17.89;32.63;101928.97;4159507;28;20041;-47
2021/05/03 01:44:15;;;;;;;1.80;0.90;;;;;;;17.86;32.78;101929.47;4154468;28;20037;-46
2021/05/03 01:46:16;;;;;;;0.70;0.70;;;;;;;17.82;32.71;101915.28;4151423;28;20049;-46
2021/05/03 01:48:22;;;;;;;1.77;1.30;;;;;;;17.87;32.65;101932.00;4156526;28;20463;-47
2021/05/03 01:50:23;;;;;;;0.85;0.80;;;;;;;17.76;32.82;101917.09;4157901;28;20692;-46
2021/05/03 01:52:23;;;;;;;3.20;1.00;;;;;;;17.79;32.83;101913.84;4159513;28;20040;-46
2021/05/03 01:54:24;;;;;;;2.45;1.10;;;;;;;17.84;32.74;101917.81;4158018;28;20045;-46
2021/05/03 01:56:25;;;;;;;1.10;0.70;;;;;;;17.86;32.77;101921.16;4159637;28;20041;-49
2021/05/03 01:58:26;;;;;;;1.50;1.00;;;;;;;17.81;32.91;101922.75;4159559;28;20040;-45
2021/05/03 02:00:27;;;;;;;0.77;0.77;;;;;;;17.77;32.74;101917.97;4148936;28;20488;-45
2021/05/03 02:02:27;;;;;;;1.67;1.02;;;;;;;17.86;32.63;101910.06;4154146;28;20034;-46
2021/05/03 02:04:28;;;;;;;1.67;1.00;;;;;;;17.80;32.56;101921.06;4158058;28;20026;-46
2021/05/03 02:06:28;;;;;;;3.08;1.30;;;;;;;17.75;32.74;101923.75;4158385;28;20038;-47
2021/05/03 02:08:30;;;;;;;2.17;1.05;;;;;;;17.76;32.82;101924.56;4156914;28;20077;-47
2021/05/03 02:10:33;;;;;;;0.85;0.85;;;;;;;17.73;32.59;101912.03;4159281;28;20044;-46
2021/05/03 02:12:37;;;;;;;1.13;1.02;;;;;;;17.79;32.67;101922.13;4154831;28;20057;-48
2021/05/03 02:14:40;;;;;;;1.40;1.30;;;;;;;17.74;32.62;101907.38;4156558;28;20052;-46
2021/05/03 02:16:40;;;;;;;1.10;1.02;;;;;;;17.74;32.62;101905.44;4158206;28;20555;-46
2021/05/03 02:18:40;;;;;;;0.85;0.85;;;;;;;17.77;32.78;101906.88;4157587;28;20102;-46
2021/05/03 02:20:42;;;;;;;2.50;1.33;;;;;;;17.75;32.67;101906.25;4156945;28;20076;-46
2021/05/03 02:22:44;;;;;;;1.15;0.88;;;;;;;17.68;32.85;101903.63;4155348;28;20254;-47
2021/05/03 02:24:44;;;;;;;2.00;0.90;;;;;;;17.73;32.51;101912.03;4109113;28;20114;-46
2021/05/03 02:26:45;;;;;;;1.67;0.90;;;;;;;17.73;32.55;101905.69;4156783;28;20125;-45
2021/05/03 02:28:45;;;;;;;0.77;0.70;;;;;;;17.72;32.46;101903.97;4155673;28;20034;-46
2021/05/03 02:30:45;;;;;;;1.27;0.88;;;;;;;17.58;32.55;101881.28;4157530;28;20087;-46
2021/05/03 02:32:46;;;;;;;2.15;0.90;;;;;;;17.68;32.57;101900.88;4157927;28;20865;-46
2021/05/03 02:34:46;;;;;;;0.80;0.77;;;;;;;17.68;32.52;101898.09;4172471;28;20472;-46
2021/05/03 02:36:48;;;;;;;1.25;0.82;;;;;;;17.67;32.54;101890.88;4167128;28;20037;-46
2021/05/03 02:38:48;;;;;;;1.92;1.00;;;;;;;17.68;32.58;101894.50;4167019;28;20115;-46
2021/05/03 02:40:48;;;;;;;0.93;0.70;;;;;;;17.67;32.60;101890.88;4171385;28;20041;-46
2021/05/03 02:42:50;;;;;;;1.63;1.02;;;;;;;17.66;32.49;101891.97;4165398;28;20029;-47
2021/05/03 02:44:50;;;;;;;0.90;0.85;;;;;;;17.63;32.55;101882.22;4174456;28;20410;-46
2021/05/03 02:46:51;;;;;;;0.80;0.80;;;;;;;17.62;32.50;101888.00;4171291;28;20048;-49
2021/05/03 02:48:52;;;;;;;1.05;0.95;;;;;;;17.62;32.48;101888.00;4167079;28;20446;-47
2021/05/03 02:50:52;;;;;;;0.90;0.90;;;;;;;17.57;32.72;101874.91;4172798;28;20037;-47
2021/05/03 02:52:53;;;;;;;1.60;0.85;;;;;;;17.61;32.68;101878.88;4173151;28;20029;-45
2021/05/03 02:54:53;;;;;;;1.00;1.00;;;;;;;17.59;32.59;101877.44;4168960;28;20085;-48
2021/05/03 02:56:54;;;;;;;0.90;0.90;;;;;;;17.60;32.76;101873.59;4175441;28;20065;-46
2021/05/03 02:58:54;;;;;;;1.58;1.08;;;;;;;17.57;32.40;101871.31;4167582;28;20036;-46
2021/05/03 03:00:54;;;;;;;1.13;1.08;;;;;;;17.58;32.53;101871.06;4171156;28;20083;-49
2021/05/03 03:02:55;;;;;;;1.52;1.15;;;;;;;17.60;32.60;101868.88;4173225;28;20377;-46
2021/05/03 03:04:56;;;;;;;0.80;0.77;;;;;;;17.57;32.53;101866.59;4173309;28;20436;-47
2021/05/03 03:06:56;;;;;;;1.23;0.80;;;;;;;17.53;32.58;101868.16;4175586;28;20032;-46
2021/05/03 03:08:57;;;;;;;1.10;1.00;;;;;;;17.50;32.55;101856.75;4170498;28;20067;-46
2021/05/03 03:10:57;;;;;;;2.00;1.20;;;;;;;17.52;32.55;101855.44;4173515;28;20730;-47
2021/05/03 03:13:00;;;;;;;1.40;1.30;;;;;;;17.50;32.54;101853.97;4174663;28;20041;-47
2021/05/03 03:15:05;;;;;;;1.98;1.20;;;;;;;17.44;32.62;101856.63;4169180;28;20025;-46
2021/05/03 03:17:07;;;;;;;1.70;1.38;;;;;;;17.24;32.67;101832.13;4168623;28;20606;-46
2021/05/03 03:19:08;;;;;;;1.92;1.40;;;;;;;17.42;32.78;101856.00;4173298;28;20316;-47
2021/05/03 03:21:08;;;;;;;1.30;1.20;;;;;;;17.46;32.64;101851.66;4171795;28;20053;-46
2021/05/03 03:23:08;;;;;;;1.30;0.90;;;;;;;17.47;32.60;101858.03;4174541;28;20110;-47
2021/05/03 03:25:09;;;;;;;1.80;1.48;;;;;;;17.46;32.60;101846.13;4172702;28;20060;-46
2021/05/03 03:27:09;;;;;;;1.38;1.23;;;;;;;17.49;32.43;101852.25;4177175;28;20034;-48
2021/05/03 03:29:10;;;;;;;1.80;0.90;;;;;;;17.47;32.55;101841.44;4172945;28;20037;-48
2021/05/03 03:31:11;;;;;;;1.77;1.10;;;;;;;17.41;32.57;101834.97;4173482;28;20033;-46
2021/05/03 03:33:11;;;;;;;1.15;0.90;;;;;;;17.45;32.43;101833.38;4176909;28;20083;-49
2021/05/03 03:35:16;;;;;;;1.30;0.77;;;;;;;17.44;32.50;101836.38;4172614;28;20510;-49
2021/05/03 03:37:17;;;;;;;1.73;1.23;;;;;;;17.45;32.61;101827.84;4162505;28;20027;-48
2021/05/03 03:39:17;;;;;;;2.00;1.10;;;;;;;17.44;32.58;101837.25;4171323;28;20033;-49
2021/05/03 03:41:17;;;;;;;0.77;0.77;;;;;;;17.41;32.56;101837.75;4171982;28;20486;-48
2021/05/03 03:43:18;;;;;;;1.42;1.05;;;;;;;17.41;32.56;101842.41;4169628;28;20041;-48
2021/05/03 03:45:19;;;;;;;1.00;0.90;;;;;;;17.41;32.58;101834.97;4175157;28;20033;-48
2021/05/03 03:47:19;;;;;;;1.38;0.90;;;;;;;17.32;32.56;101816.19;4165376;28;20055;-48
2021/05/03 03:49:20;;;;;;;1.85;1.20;;;;;;;17.37;32.57;101830.16;4172965;28;20025;-47
2021/05/03 03:51:21;;;;;;;1.10;1.00;;;;;;;17.38;32.54;101824.38;4170835;28;20033;-49
2021/05/03 03:53:21;;;;;;;2.33;1.10;;;;;;;17.39;32.57;101819.69;4172471;28;20064;-48
2021/05/03 03:55:21;;;;;;;2.00;1.48;;;;;;;17.38;32.63;101831.81;4173784;28;20117;-49
2021/05/03 03:57:22;;;;;;;3.10;1.42;;;;;;;17.38;32.46;101824.38;4169146;28;20029;-48
2021/05/03 03:59:23;;;;;;;2.08;1.58;;;;;;;17.36;32.54;101822.94;4162953;28;20029;-48
2021/05/03 04:01:24;;;;;;;1.42;1.10;;;;;;;17.34;32.58;101831.50;4171629;28;20041;-52
2021/05/03 04:03:25;;;;;;;1.98;1.77;;;;;;;17.33;32.46;101824.25;4172295;28;20032;-49
2021/05/03 04:06:03;;;;;;;1.27;1.17;;;;;;;17.33;32.62;101818.72;4174167;28;20043;-49
2021/05/03 04:07:57;;;;;;;2.05;1.33;;;;;;;17.33;32.58;101813.19;4170145;28;20055;-48
2021/05/03 04:10:21;;;;;;;1.38;1.27;;;;;;;17.34;32.55;101808.53;4151531;28;20125;-49
2021/05/03 04:21:38;;;;;;;1.15;1.00;;;;;;;17.31;32.60;101815.38;4173753;28;20057;-47
2021/05/03 04:23:55;;;;;;;1.73;1.40;;;;;;;17.30;32.57;101816.44;4171688;28;20044;-46
2021/05/03 04:25:55;;;;;;;2.30;1.02;;;;;;;17.30;32.64;101813.69;4171144;28;20116;-47
2021/05/03 04:27:56;;;;;;;2.58;2.05;;;;;;;17.26;32.63;101806.97;4173599;28;20404;-46
2021/05/03 04:29:56;;;;;;;2.25;1.60;;;;;;;17.28;32.40;101811.16;4168545;28;20029;-48
2021/05/03 04:31:56;;;;;;;1.77;1.45;;;;;;;17.27;32.58;101809.50;4172444;28;20040;-46
2021/05/03 04:33:57;;;;;;;2.28;1.90;;;;;;;17.25;32.44;101819.94;4169181;28;20463;-46
2021/05/03 04:35:59;;;;;;;2.15;1.70;;;;;;;17.23;32.60;101813.81;4174254;28;20049;-47
2021/05/03 04:37:59;;;;;;;2.13;1.88;;;;;;;17.23;32.57;101813.81;4176260;28;20055;-47
2021/05/03 04:39:59;;;;;;;1.95;1.60;;;;;;;17.23;32.54;101815.75;4168052;28;20028;-49
2021/05/03 04:42:00;;;;;;;2.25;1.42;;;;;;;17.21;32.77;101818.78;4171772;28;20044;-47
2021/05/03 04:44:00;;;;;;;2.13;1.50;;;;;;;17.19;32.52;101809.84;4171495;28;20033;-47
2021/05/03 04:46:01;;;;;;;1.52;1.30;;;;;;;17.14;32.64;101806.16;4173651;28;20029;-47
2021/05/03 04:48:01;;;;;;;3.20;1.48;;;;;;;17.23;32.53;101813.00;4174260;28;20422;-50
2021/05/03 04:50:02;;;;;;;2.58;1.60;;;;;;;17.20;32.47;101814.31;4170627;28;20391;-47
2021/05/03 04:52:03;;;;;;;2.13;1.83;;;;;;;17.21;32.68;101807.72;4168759;28;20064;-46
2021/05/03 04:54:04;;;;;;;2.13;1.73;;;;;;;17.21;32.67;101820.69;4173517;28;20033;-46
2021/05/03 04:56:05;;;;;;;1.77;1.40;;;;;;;17.19;32.64;101822.84;4162846;28;20037;-45
2021/05/03 04:58:05;;;;;;;3.28;2.08;;;;;;;17.19;32.46;101825.63;4163257;28;20061;-46
2021/05/03 05:00:06;;;;;;;3.08;1.30;;;;;;;17.19;32.57;101822.84;4171956;28;20037;-46
2021/05/03 05:02:07;;;;;;;1.65;1.40;;;;;;;17.21;32.37;101818.78;4174044;28;20078;-46
2021/05/03 05:04:07;;;;;;;2.92;1.52;;;;;;;17.06;32.56;101801.84;4176985;28;20028;-46
2021/05/03 05:06:08;;;;;;;2.60;1.77;;;;;;;17.18;32.59;101835.00;4167959;28;20056;-49
2021/05/03 05:08:09;;;;;;;3.05;1.63;;;;;;;17.18;32.59;101829.47;4171732;28;20036;-47
2021/05/03 05:10:11;;;;;;;1.65;1.45;;;;;;;17.15;32.70;101827.19;4173686;28;20040;-46
2021/05/03 05:12:12;;;;;;;2.42;1.80;;;;;;;17.13;32.70;101826.59;4170241;28;20040;-47
2021/05/03 05:14:12;;;;;;;2.78;1.80;;;;;;;17.15;32.74;101832.72;4171347;28;20330;-48
2021/05/03 05:16:12;;;;;;;2.78;1.63;;;;;;;17.15;32.69;101829.94;4171674;28;20486;-47
2021/05/03 05:18:13;;;;;;;2.45;1.90;;;;;;;17.15;32.79;101836.34;4175556;28;20033;-46
2021/05/03 05:20:14;;;;;;;2.00;1.40;;;;;;;17.09;32.69;101818.78;4167792;28;20037;-46
2021/05/03 05:22:15;;;;;;;2.72;1.90;;;;;;;17.15;32.67;101832.72;4168806;28;20435;-46
2021/05/03 05:24:16;;;;;;;2.75;1.50;;;;;;;17.15;32.70;101822.53;4173530;28;20132;-47
2021/05/03 05:26:16;;;;;;;2.22;1.40;;;;;;;17.14;32.70;101822.75;4170510;28;20069;-46
2021/05/03 05:28:16;;;;;;;2.58;1.50;;;;;;;17.08;32.89;101816.25;4171587;28;20204;-45
2021/05/03 05:30:17;;;;;;;3.15;1.80;;;;;;;17.11;32.70;101826.84;4173272;28;20055;-47
2021/05/03 05:32:17;;;;;;;2.13;1.88;;;;;;;17.09;32.70;101817.97;4169463;28;20041;-47
2021/05/03 05:34:18;;;;;;;2.08;1.67;;;;;;;17.11;32.52;101835.13;4160694;28;20056;-47
2021/05/03 05:36:18;;;;;;;4.57;1.70;;;;;;;17.11;32.77;101832.38;4169520;28;20036;-46
2021/05/03 05:38:19;;;;;;;3.38;1.88;;;;;;;17.10;32.72;101831.53;4169515;28;20064;-46
2021/05/03 05:40:19;;;;;;;1.85;1.75;;;;;;;17.09;32.85;101815.19;4166136;28;20486;-46
2021/05/03 05:42:20;;;;;;;1.65;1.45;;;;;;;17.10;32.94;101820.47;4171601;28;20041;-46
2021/05/03 05:44:20;;;;;;;3.92;1.60;;;;;;;17.09;32.91;101824.31;4165128;28;20040;-46
2021/05/03 05:46:21;;;;;;;3.50;1.95;;;;;;;17.08;32.73;101819.88;4171838;28;20041;-47
2021/05/03 05:48:21;;;;;;;3.17;1.80;;;;;;;17.09;32.65;101834.56;4169395;28;20534;-46
2021/05/03 05:50:22;;;;;;;2.97;1.75;;;;;;;17.08;32.66;101825.41;4170188;28;20371;-48
2021/05/03 05:52:22;;;;;;;2.38;1.90;;;;;;;17.09;32.79;101823.50;4174118;28;20044;-47
2021/05/03 05:54:23;;;;;;;1.95;1.48;;;;;;;16.87;32.57;101788.16;4169455;28;20135;-46
2021/05/03 05:56:23;;;;;;;5.45;2.30;;;;;;;17.06;32.80;101826.75;4166563;28;20028;-46
2021/05/03 05:58:24;;;;;;;4.40;2.35;;;;;;;17.09;32.81;101821.56;4172461;28;20117;-46
2021/05/03 06:00:24;;;;;;;3.45;1.70;;;;;;;17.09;32.78;101824.31;4169726;28;20029;-46
2021/05/03 06:02:24;;;;;;;3.05;2.28;;;;;;;17.06;32.86;101819.28;4166421;28;20068;-48
2021/05/03 06:04:25;;;;;;;4.93;2.15;;;;;;;17.07;32.96;101820.13;4171176;28;20037;-47
2021/05/03 06:06:25;;;;;;;2.55;2.20;;;;;;;17.07;32.73;101809.91;4169167;28;20103;-47
2021/05/03 06:08:26;;;;;;;2.20;1.98;;;;;;;17.06;32.81;101813.75;4175122;28;20025;-47
2021/05/03 06:10:27;;;;;;;2.55;2.35;;;;;;;17.06;32.74;101810.97;4169958;28;20041;-48
2021/05/03 06:12:27;;;;;;;3.25;2.47;;;;;;;17.04;32.97;101815.91;4174845;28;20040;-48
2021/05/03 06:14:27;;;;;;;2.53;2.13;;;;;;;17.05;32.61;101812.09;4170452;28;20449;-47
2021/05/03 06:16:28;;;;;;;2.75;2.33;;;;;;;17.05;32.90;101817.63;4170018;28;20029;-46
2021/05/03 06:18:28;;;;;;;3.03;2.78;;;;;;;17.05;32.90;101808.44;4171525;28;20093;-46
2021/05/03 06:20:29;;;;;;;2.35;2.15;;;;;;;17.04;32.79;101815.91;4170802;28;20033;-46
2021/05/03 06:22:30;;;;;;;4.68;2.70;;;;;;;17.06;32.64;101815.69;4167941;28;20475;-49
2021/05/03 06:24:31;;;;;;;3.60;2.38;;;;;;;17.01;33.00;101816.41;4168740;28;20054;-45
2021/05/03 06:26:31;;;;;;;2.78;2.20;;;;;;;17.02;32.98;101814.47;4171272;28;20467;-46
2021/05/03 06:28:32;;;;;;;3.10;2.42;;;;;;;17.07;32.90;101820.97;4169938;28;20036;-47
2021/05/03 06:30:33;;;;;;;4.10;3.75;;;;;;;17.06;32.89;101822.03;4175467;28;20033;-45
2021/05/03 06:32:33;;;;;;;3.45;2.33;;;;;;;16.95;32.91;101808.25;4171490;28;20028;-46
2021/05/03 06:34:34;;;;;;;5.35;2.78;;;;;;;17.03;32.93;101821.69;4178660;28;20032;-47
2021/05/03 06:36:34;;;;;;;4.47;2.58;;;;;;;17.05;33.08;101822.28;4168479;28;20064;-48
2021/05/03 06:38:35;;;;;;;2.72;2.38;;;;;;;17.06;32.85;101822.03;4177705;28;20859;-46
2021/05/03 06:40:35;;;;;;;3.97;2.50;;;;;;;17.05;32.88;101825.91;4171379;28;20026;-48
2021/05/03 06:42:36;;;;;;;3.65;2.28;;;;;;;17.05;33.21;101836.13;4174683;28;20029;-46
2021/05/03 06:44:36;;;;;;;3.42;2.50;;;;;;;17.06;33.21;101816.50;4174859;28;20364;-46
2021/05/03 06:46:38;;;;;;;3.55;2.25;;;;;;;17.02;32.98;101811.69;4175050;28;20033;-49
2021/05/03 06:48:40;;;;;;;4.32;2.40;;;;;;;17.08;33.04;101811.56;4165471;28;20492;-46
2021/05/03 06:50:43;;;;;;;2.53;2.33;;;;;;;17.08;32.95;101807.97;4168203;28;20035;-50
2021/05/03 06:52:44;;;;;;;4.32;2.58;;;;;;;17.05;32.98;101798.25;4174102;28;20021;-47
2021/05/03 06:54:45;;;;;;;2.58;2.38;;;;;;;17.05;33.00;101803.78;4174604;28;20114;-47
2021/05/03 06:56:46;;;;;;;4.75;3.08;;;;;;;17.08;33.23;101810.72;4175306;28;20037;-46
2021/05/03 06:58:46;;;;;;;6.75;2.95;;;;;;;17.10;32.92;101806.66;4170710;28;20051;-48
2021/05/03 07:00:47;;;;;;;2.78;2.58;;;;;;;17.11;33.08;101808.31;4163839;28;20484;-46
2021/05/03 07:02:47;;;;;;;7.45;2.85;;;;;;;17.10;33.10;101806.66;4175894;28;20087;-48
2021/05/03 07:04:47;;;;;;;4.97;3.17;;;;;;;17.14;33.07;101806.16;4169078;28;20751;-47
2021/05/03 07:06:48;;;;;;;2.92;2.63;;;;;;;17.16;32.84;101806.75;4174721;28;20114;-47
2021/05/03 07:08:49;;;;;;;10.55;3.28;;;;;;;17.18;33.02;101815.63;4173636;28;20404;-47
2021/05/03 07:10:52;;;;;;;8.20;2.72;;;;;;;17.16;32.97;101809.50;4173904;28;20082;-46
2021/05/03 07:12:53;;;;;;;6.25;3.60;;;;;;;17.19;33.12;101809.03;4171965;28;20246;-49
2021/05/03 07:14:53;;;;;;;4.18;2.85;;;;;;;17.19;33.07;101811.78;4170561;28;20087;-46
2021/05/03 07:16:54;;;;;;;7.22;2.80;;;;;;;17.19;33.11;101809.03;4177336;28;20041;-46
2021/05/03 07:18:54;;;;;;;4.45;3.15;;;;;;;17.19;33.04;101822.84;4175300;28;20079;-48
2021/05/03 07:20:55;;;;;;;4.78;2.58;;;;;;;17.19;33.05;101806.25;4172200;28;20033;-49
2021/05/03 07:22:55;;;;;;;3.80;2.50;;;;;;;17.18;33.07;101802.66;4176525;28;20036;-46
2021/05/03 07:24:55;;;;;;;7.35;2.92;;;;;;;17.21;33.00;101801.31;4174023;28;20037;-47
2021/05/03 07:26:56;;;;;;;3.90;2.80;;;;;;;17.20;33.00;101811.53;4170119;28;20379;-46
2021/05/03 07:28:56;;;;;;;4.97;3.25;;;;;;;17.24;33.06;101800.81;4177649;28;20020;-47
2021/05/03 07:30:58;;;;;;;3.67;3.22;;;;;;;17.26;32.78;101798.69;4172016;28;20037;-48
2021/05/03 07:32:59;;;;;;;7.15;3.05;;;;;;;17.27;32.82;101794.81;4172381;28;20130;-46
2021/05/03 07:34:59;;;;;;;4.25;3.58;;;;;;;17.27;33.01;101794.81;4152789;28;20136;-47
2021/05/03 07:36:59;;;;;;;5.72;3.30;;;;;;;17.20;33.26;101792.19;4175241;28;20102;-46
2021/05/03 07:39:00;;;;;;;9.32;3.17;;;;;;;17.23;33.17;101796.41;4166844;28;20037;-47
2021/05/03 07:41:00;;;;;;;4.68;3.13;;;;;;;17.28;33.05;101800.09;4174749;28;20044;-46
2021/05/03 07:43:01;;;;;;;5.00;3.85;;;;;;;17.30;32.99;101794.31;4171393;28;20033;-47
2021/05/03 07:45:02;;;;;;;5.90;3.35;;;;;;;17.32;32.99;101794.94;4172804;28;20036;-48
2021/05/03 07:47:03;;;;;;;4.85;3.33;;;;;;;17.31;33.09;101800.72;4171172;28;20033;-48
2021/05/03 07:49:05;;;;;;;5.97;3.25;;;;;;;17.30;33.14;101797.06;4171561;28;20508;-47
2021/05/03 07:51:06;;;;;;;4.72;4.00;;;;;;;17.34;33.13;101797.44;4171666;28;20462;-45
2021/05/03 07:53:06;;;;;;;5.00;3.58;;;;;;;17.37;33.01;101796.97;4170858;28;20475;-46
2021/05/03 07:55:11;;;;;;;5.30;3.20;;;;;;;17.36;32.94;101787.78;4175624;28;20044;-46
2021/05/03 07:57:11;;;;;;;4.95;3.10;;;;;;;17.38;33.01;101788.41;4174864;28;20037;-48
2021/05/03 07:59:12;;;;;;;5.95;3.28;;;;;;;17.35;32.99;101788.91;4172317;28;20036;-47
2021/05/03 08:01:13;;;;;;;4.65;3.28;;;;;;;17.40;32.87;101785.41;4176262;28;20034;-49
2021/05/03 08:03:13;;;;;;;6.55;4.13;;;;;;;17.42;32.95;101786.81;4171577;28;20060;-46
2021/05/03 08:05:14;;;;;;;3.75;2.90;;;;;;;17.40;33.04;101785.41;4176341;28;20227;-46
2021/05/03 08:07:14;;;;;;;6.30;3.40;;;;;;;17.44;32.89;101779.13;4174577;28;20036;-47
2021/05/03 08:09:15;;;;;;;3.58;3.05;;;;;;;17.48;32.93;101782.22;4171355;28;20030;-46
2021/05/03 08:11:16;;;;;;;6.55;2.92;;;;;;;17.33;33.05;101768.09;4169196;28;20087;-46
2021/05/03 08:13:17;;;;;;;3.67;3.28;;;;;;;17.47;33.19;101775.00;4172717;28;20151;-48
2021/05/03 08:15:20;;;;;;;5.35;2.80;;;;;;;17.42;32.98;101772.16;4166534;28;20051;-46
2021/05/03 08:17:20;;;;;;;5.75;3.25;;;;;;;17.44;33.10;101765.28;4173766;28;20048;-46
2021/05/03 08:19:22;;;;;;;3.97;2.85;;;;;;;17.44;33.11;101764.44;4169393;28;20033;-48
2021/05/03 08:21:22;;;;;;;4.57;3.30;;;;;;;17.48;33.15;101775.88;4164708;28;20033;-47
2021/05/03 08:23:24;;;;;;;4.97;2.65;;;;;;;17.54;33.06;101774.91;4170732;28;20510;-47
2021/05/03 08:25:26;;;;;;;4.93;2.70;;;;;;;17.53;33.18;101775.97;4171680;28;20029;-47
2021/05/03 08:27:27;;;;;;;4.00;3.00;;;;;;;17.57;32.92;101779.94;4164339;28;20037;-48
2021/05/03 08:29:28;;;;;;;4.78;3.17;;;;;;;17.60;32.95;101780.28;4170765;28;20033;-47
2021/05/03 08:31:28;;;;;;;3.30;2.67;;;;;;;17.53;32.96;101762.16;4171118;28;20133;-46
2021/05/03 08:33:29;;;;;;;5.40;3.33;;;;;;;17.61;32.91;101775.56;4174157;28;20129;-47
2021/05/03 08:35:29;;;;;;;3.38;2.80;;;;;;;17.64;33.12;101775.06;4172627;28;20037;-47
2021/05/03 08:37:30;;;;;;;5.28;3.10;;;;;;;17.63;33.14;101776.19;4170138;28;20032;-46
2021/05/03 08:39:31;;;;;;;4.22;3.45;;;;;;;17.65;32.98;101782.31;4174937;28;20029;-46
2021/05/03 08:41:35;;;;;;;8.73;3.30;;;;;;;17.54;33.42;101777.69;4166952;28;20410;-45
2021/05/03 08:43:40;;;;;;;11.57;3.60;;;;;;;17.59;33.37;101783.31;4169614;28;20033;-44
2021/05/03 08:45:41;;;;;;;16.73;4.88;;;;;;;17.52;33.61;101779.81;4169286;28;20529;-44
2021/05/03 08:47:53;;;;;;;16.25;4.75;;;;;;;17.66;33.71;101777.59;4168428;28;20025;-48
2021/05/03 08:49:57;;;;;;;10.90;4.90;;;;;;;17.58;33.85;101792.69;4172596;28;20101;-48
2021/05/03 08:52:12;;;;;;;21.60;6.53;;;;;;;17.56;34.03;101775.50;4175309;28;20085;-47
2021/05/03 08:54:35;;;;;;;14.57;7.30;;;;;;;17.56;34.18;101789.34;4170039;28;20038;-45
2021/05/03 08:56:36;;;;;;;14.68;7.03;;;;;;;17.61;34.30;101783.88;4166435;28;20090;-46
2021/05/03 08:58:38;;;;;;;12.68;6.85;;;;;;;17.58;34.23;101778.84;4171415;28;20025;-43
2021/05/03 09:00:39;;;;;;;13.43;6.70;;;;;;;17.63;34.21;101774.25;4160063;28;20029;-42
2021/05/03 09:02:46;;;;;;;16.30;6.72;;;;;;;17.73;34.30;101779.13;4167589;28;20037;-43
2021/05/03 09:04:47;;;;;;;14.18;6.80;;;;;;;17.78;34.27;101775.63;4167147;28;20383;-46
2021/05/03 09:07:05;;;;;;;19.15;6.90;;;;;;;17.83;34.34;101781.28;4169000;28;20029;-45
2021/05/03 09:09:08;;;;;;;11.32;6.65;;;;;;;17.81;34.70;101780.66;4169898;28;20493;-43
2021/05/03 09:11:13;;;;;;;11.77;5.88;;;;;;;17.88;34.69;101780.53;4169412;28;20111;-43
2021/05/03 09:13:14;;;;;;;19.73;7.30;;;;;;;17.82;34.72;101779.56;4170081;28;20541;-42
2021/05/03 09:15:22;;;;;;;20.92;7.32;;;;;;;17.84;34.82;101765.47;4168105;28;20024;-42
2021/05/03 09:17:22;;;;;;;12.60;7.28;;;;;;;17.76;34.86;101747.34;4164860;28;20087;-42
2021/05/03 09:19:24;;;;;;;11.75;7.50;;;;;;;17.85;34.98;101761.63;4170966;28;20402;-44
2021/05/03 09:21:30;;;;;;;12.63;7.20;;;;;;;17.94;35.00;101763.72;4164526;28;20034;-45
2021/05/03 09:23:50;;;;;;;11.13;6.93;;;;;;;18.00;34.81;101753.59;4169069;28;20119;-48
2021/05/03 09:25:53;;;;;;;13.95;6.28;;;;;;;18.03;35.30;101760.53;4171170;28;20044;-44
2021/05/03 09:28:14;;;;;;;13.55;6.35;;;;;;;18.12;35.42;101764.56;4173168;28;20048;-44
2021/05/03 09:30:34;;;;;;;11.95;7.03;;;;;;;18.08;35.34;101755.09;4173105;28;20024;-42
2021/05/03 09:32:35;;;;;;;8.90;7.07;;;;;;;18.15;35.40;101764.94;4171255;28;20350;-43
2021/05/03 09:34:46;;;;;;;12.65;7.50;;;;;;;18.13;35.35;101763.50;4171194;28;20049;-42
2021/05/03 09:36:47;;;;;;;14.50;7.35;;;;;;;18.25;35.12;101758.69;4170583;28;20103;-42
2021/05/03 09:38:49;;;;;;;13.95;6.15;;;;;;;18.24;35.02;101761.72;4166886;28;20407;-44